createdAt,value
2022-08-07T00:00:41.160Z,0
2022-08-07T00:01:50.308Z,0
2022-08-07T00:02:59.481Z,0
2022-08-07T00:04:08.654Z,0
2022-08-07T00:05:17.839Z,0
2022-08-07T00:06:26.998Z,0
2022-08-07T00:07:36.167Z,0
2022-08-07T00:08:45.355Z,0
2022-08-07T00:09:54.514Z,0
2022-08-07T00:11:03.713Z,0
2022-08-07T00:12:12.850Z,0
2022-08-07T00:13:22.029Z,0
2022-08-07T00:14:30.240Z,0
2022-08-07T00:15:39.388Z,0
2022-08-07T00:16:47.590Z,0
2022-08-07T00:17:55.784Z,0
2022-08-07T00:19:04.947Z,0
2022-08-07T00:21:22.319Z,0
2022-08-07T00:22:30.505Z,0
2022-08-07T00:23:38.702Z,0
2022-08-07T00:24:47.887Z,0
2022-08-07T00:25:57.058Z,0
2022-08-07T00:27:06.221Z,0
2022-08-07T00:28:15.392Z,0
2022-08-07T00:29:24.558Z,0
2022-08-07T00:30:33.738Z,0
2022-08-07T00:31:42.931Z,0
2022-08-07T00:32:52.084Z,0
2022-08-07T00:34:01.248Z,0
2022-08-07T00:35:10.433Z,0
2022-08-07T00:36:19.592Z,0
2022-08-07T00:37:28.767Z,0
2022-08-07T00:38:36.983Z,0
2022-08-07T00:39:46.135Z,0
2022-08-07T00:40:55.310Z,0
2022-08-07T00:42:04.492Z,0
2022-08-07T00:43:13.651Z,0
2022-08-07T00:44:22.833Z,0
2022-08-07T00:45:31.995Z,0
2022-08-07T00:46:41.180Z,0
2022-08-07T00:47:50.352Z,0
2022-08-07T00:48:58.539Z,0
2022-08-07T00:50:07.716Z,0
2022-08-07T00:51:16.873Z,0
2022-08-07T00:52:26.067Z,0
2022-08-07T00:53:35.224Z,0
2022-08-07T00:54:44.422Z,0
2022-08-07T00:55:53.574Z,0
2022-08-07T00:57:02.746Z,0
2022-08-07T00:58:11.916Z,0
2022-08-07T00:59:21.099Z,0
2022-08-07T01:00:30.269Z,0
2022-08-07T01:01:39.420Z,0
2022-08-07T01:02:48.650Z,0
2022-08-07T01:03:56.795Z,0
2022-08-07T01:05:05.964Z,0
2022-08-07T01:06:15.162Z,0
2022-08-07T01:07:24.323Z,0
2022-08-07T01:08:32.522Z,0
2022-08-07T01:09:40.699Z,0
2022-08-07T01:10:49.886Z,0
2022-08-07T01:11:59.040Z,0
2022-08-07T01:13:08.239Z,0
2022-08-07T01:14:17.375Z,0
2022-08-07T01:15:26.564Z,0
2022-08-07T01:16:35.723Z,0
2022-08-07T01:17:44.891Z,0
2022-08-07T01:18:54.079Z,0
2022-08-07T01:20:03.248Z,0
2022-08-07T01:21:12.423Z,0
2022-08-07T01:22:21.589Z,0
2022-08-07T01:23:30.791Z,0
2022-08-07T01:24:38.980Z,0
2022-08-07T01:25:47.160Z,0
2022-08-07T01:26:56.316Z,0
2022-08-07T01:28:05.518Z,0
2022-08-07T01:29:14.688Z,0
2022-08-07T01:30:23.844Z,0
2022-08-07T01:31:33.024Z,0
2022-08-07T01:32:42.195Z,0
2022-08-07T01:33:51.371Z,0
2022-08-07T01:35:00.545Z,0
2022-08-07T01:36:09.732Z,0
2022-08-07T01:37:18.892Z,0
2022-08-07T01:38:28.055Z,0
2022-08-07T01:39:37.216Z,0
2022-08-07T01:40:45.407Z,0
2022-08-07T01:41:54.591Z,0
2022-08-07T01:43:03.800Z,0
2022-08-07T01:44:12.946Z,0
2022-08-07T01:45:22.095Z,0
2022-08-07T01:46:31.268Z,0
2022-08-07T01:47:40.443Z,0
2022-08-07T01:48:49.612Z,0
2022-08-07T01:49:58.792Z,0
2022-08-07T01:51:07.961Z,0
2022-08-07T01:52:17.133Z,0
2022-08-07T01:53:26.307Z,0
2022-08-07T01:54:35.476Z,0
2022-08-07T01:55:43.665Z,0
2022-08-07T01:56:52.847Z,0
2022-08-07T01:58:02.013Z,0
2022-08-07T01:59:11.197Z,0
2022-08-07T02:00:19.395Z,0
2022-08-07T02:01:27.568Z,0
2022-08-07T02:02:36.742Z,0
2022-08-07T02:03:44.939Z,0
2022-08-07T02:04:53.128Z,0
2022-08-07T02:06:02.292Z,0
2022-08-07T02:07:11.493Z,0
2022-08-07T02:08:20.639Z,0
2022-08-07T02:09:29.807Z,0
2022-08-07T02:10:39.010Z,0
2022-08-07T02:11:48.162Z,0
2022-08-07T02:12:57.329Z,0
2022-08-07T02:14:06.502Z,0
2022-08-07T02:15:15.673Z,0
2022-08-07T02:16:24.849Z,0
2022-08-07T02:17:34.018Z,0
2022-08-07T02:18:43.196Z,0
2022-08-07T02:19:51.383Z,0
2022-08-07T02:21:00.569Z,0
2022-08-07T02:22:09.727Z,0
2022-08-07T02:23:18.918Z,0
2022-08-07T02:24:28.069Z,0
2022-08-07T02:25:37.250Z,0
2022-08-07T02:26:46.429Z,0
2022-08-07T02:27:55.606Z,0
2022-08-07T02:29:04.784Z,0
2022-08-07T02:30:13.933Z,0
2022-08-07T02:31:23.133Z,0
2022-08-07T02:32:32.303Z,0
2022-08-07T02:33:41.447Z,0
2022-08-07T02:34:49.664Z,0
2022-08-07T02:35:57.844Z,0
2022-08-07T02:37:07.022Z,0
2022-08-07T02:38:15.208Z,0
2022-08-07T02:39:24.389Z,0
2022-08-07T02:40:32.572Z,0
2022-08-07T02:41:41.745Z,0
2022-08-07T02:42:50.911Z,0
2022-08-07T02:44:00.122Z,0
2022-08-07T02:45:09.257Z,0
2022-08-07T02:46:18.427Z,0
2022-08-07T02:47:27.616Z,0
2022-08-07T02:48:36.793Z,0
2022-08-07T02:49:45.950Z,0
2022-08-07T02:50:55.131Z,0
2022-08-07T02:52:04.314Z,0
2022-08-07T02:53:13.483Z,0
2022-08-07T02:54:22.638Z,0
2022-08-07T02:55:30.834Z,0
2022-08-07T02:56:40.001Z,0
2022-08-07T02:57:49.177Z,0
2022-08-07T02:58:58.361Z,0
2022-08-07T03:00:07.524Z,0
2022-08-07T03:01:16.693Z,0
2022-08-07T03:02:25.882Z,0
2022-08-07T03:03:35.035Z,0
2022-08-07T03:04:44.235Z,0
2022-08-07T03:05:53.391Z,0
2022-08-07T03:07:02.556Z,0
2022-08-07T03:08:11.721Z,0
2022-08-07T03:09:20.905Z,0
2022-08-07T03:10:29.126Z,0
2022-08-07T03:11:38.265Z,0
2022-08-07T03:12:47.452Z,0
2022-08-07T03:13:56.605Z,0
2022-08-07T03:15:05.781Z,0
2022-08-07T03:16:14.975Z,0
2022-08-07T03:17:24.131Z,0
2022-08-07T03:18:33.297Z,0
2022-08-07T03:19:42.475Z,0
2022-08-07T03:20:51.644Z,0
2022-08-07T03:22:00.811Z,0
2022-08-07T03:23:10.009Z,0
2022-08-07T03:24:19.164Z,0
2022-08-07T03:25:27.374Z,0
2022-08-07T03:26:36.529Z,0
2022-08-07T03:27:45.702Z,0
2022-08-07T03:28:54.887Z,0
2022-08-07T03:30:04.052Z,0
2022-08-07T03:31:13.207Z,0
2022-08-07T03:32:22.392Z,0
2022-08-07T03:33:31.568Z,0
2022-08-07T03:34:40.737Z,0
2022-08-07T03:35:49.908Z,0
2022-08-07T03:36:59.091Z,0
2022-08-07T03:38:08.261Z,0
2022-08-07T03:39:17.427Z,0
2022-08-07T03:40:25.622Z,0
2022-08-07T03:41:34.782Z,0
2022-08-07T03:42:43.962Z,0
2022-08-07T03:43:53.128Z,0
2022-08-07T03:45:02.310Z,0
2022-08-07T03:46:11.480Z,0
2022-08-07T03:47:20.650Z,0
2022-08-07T03:48:29.821Z,0
2022-08-07T03:49:38.993Z,0
2022-08-07T03:50:48.165Z,0
2022-08-07T03:51:57.347Z,0
2022-08-07T03:53:06.512Z,0
2022-08-07T03:54:15.694Z,0
2022-08-07T03:55:23.881Z,0
2022-08-07T03:56:33.044Z,0
2022-08-07T03:57:42.218Z,0
2022-08-07T03:58:51.400Z,5
2022-08-07T04:00:00.578Z,5
2022-08-07T04:01:09.747Z,5
2022-08-07T04:02:18.938Z,5
2022-08-07T04:03:28.110Z,5
2022-08-07T04:04:37.280Z,5
2022-08-07T04:05:46.435Z,5
2022-08-07T04:06:55.634Z,5
2022-08-07T04:08:04.775Z,11
2022-08-07T04:09:13.955Z,11
2022-08-07T04:10:22.161Z,11
2022-08-07T04:11:31.325Z,11
2022-08-07T04:12:40.505Z,11
2022-08-07T04:13:49.659Z,11
2022-08-07T04:14:58.849Z,16
2022-08-07T04:16:08.003Z,16
2022-08-07T04:17:17.184Z,16
2022-08-07T04:18:26.356Z,16
2022-08-07T04:19:35.520Z,16
2022-08-07T04:20:44.699Z,16
2022-08-07T04:21:53.879Z,22
2022-08-07T04:23:03.047Z,22
2022-08-07T04:24:12.204Z,22
2022-08-07T04:25:20.402Z,22
2022-08-07T04:26:29.581Z,28
2022-08-07T04:27:38.750Z,28
2022-08-07T04:28:47.916Z,28
2022-08-07T04:29:57.101Z,28
2022-08-07T04:31:06.267Z,33
2022-08-07T04:32:15.437Z,33
2022-08-07T04:33:24.630Z,33
2022-08-07T04:34:33.780Z,33
2022-08-07T04:35:42.976Z,39
2022-08-07T04:36:52.182Z,39
2022-08-07T04:38:01.302Z,39
2022-08-07T04:39:10.479Z,39
2022-08-07T04:40:18.670Z,39
2022-08-07T04:41:27.865Z,45
2022-08-07T04:42:37.016Z,45
2022-08-07T04:43:46.192Z,45
2022-08-07T04:44:55.365Z,45
2022-08-07T04:46:04.536Z,45
2022-08-07T04:47:13.728Z,50
2022-08-07T04:48:22.883Z,50
2022-08-07T04:49:32.044Z,50
2022-08-07T04:50:41.228Z,50
2022-08-07T04:51:50.391Z,50
2022-08-07T04:52:59.572Z,50
2022-08-07T04:54:08.741Z,50
2022-08-07T04:55:16.927Z,56
2022-08-07T04:56:26.108Z,56
2022-08-07T04:57:35.279Z,56
2022-08-07T04:58:44.466Z,61
2022-08-07T04:59:53.632Z,61
2022-08-07T05:01:02.806Z,61
2022-08-07T05:02:11.968Z,67
2022-08-07T05:03:21.157Z,67
2022-08-07T05:04:30.339Z,67
2022-08-07T05:05:39.486Z,67
2022-08-07T05:06:48.670Z,73
2022-08-07T05:07:57.854Z,73
2022-08-07T05:09:07.015Z,73
2022-08-07T05:10:15.199Z,78
2022-08-07T05:11:24.374Z,78
2022-08-07T05:12:33.546Z,78
2022-08-07T05:13:42.720Z,78
2022-08-07T05:14:51.883Z,84
2022-08-07T05:16:01.054Z,84
2022-08-07T05:17:10.249Z,84
2022-08-07T05:18:19.409Z,84
2022-08-07T05:19:28.570Z,84
2022-08-07T05:20:37.769Z,84
2022-08-07T05:21:46.925Z,90
2022-08-07T05:22:56.105Z,90
2022-08-07T05:24:05.311Z,90
2022-08-07T05:25:13.450Z,101
2022-08-07T05:26:22.623Z,95
2022-08-07T05:27:30.820Z,95
2022-08-07T05:28:39.020Z,101
2022-08-07T05:29:48.193Z,101
2022-08-07T05:30:56.382Z,101
2022-08-07T05:32:04.580Z,106
2022-08-07T05:33:13.744Z,106
2022-08-07T05:34:22.961Z,106
2022-08-07T05:35:32.080Z,112
2022-08-07T05:36:41.264Z,112
2022-08-07T05:37:50.435Z,112
2022-08-07T05:38:59.599Z,112
2022-08-07T05:40:08.765Z,112
2022-08-07T05:41:17.943Z,112
2022-08-07T05:42:27.111Z,118
2022-08-07T05:43:36.279Z,112
2022-08-07T05:44:45.476Z,118
2022-08-07T05:45:54.641Z,118
2022-08-07T05:47:02.832Z,118
2022-08-07T05:48:12.021Z,118
2022-08-07T05:49:21.173Z,118
2022-08-07T05:50:30.334Z,118
2022-08-07T05:51:39.527Z,118
2022-08-07T05:52:48.700Z,118
2022-08-07T05:53:57.863Z,123
2022-08-07T05:55:07.046Z,123
2022-08-07T05:56:16.208Z,123
2022-08-07T05:57:25.382Z,123
2022-08-07T05:58:34.549Z,123
2022-08-07T05:59:43.744Z,123
2022-08-07T06:00:52.905Z,129
2022-08-07T06:02:01.090Z,129
2022-08-07T06:03:10.267Z,129
2022-08-07T06:04:19.449Z,129
2022-08-07T06:05:28.611Z,129
2022-08-07T06:06:37.783Z,129
2022-08-07T06:07:46.939Z,129
2022-08-07T06:08:56.139Z,129
2022-08-07T06:10:05.317Z,135
2022-08-07T06:11:14.467Z,135
2022-08-07T06:12:23.643Z,135
2022-08-07T06:13:32.809Z,135
2022-08-07T06:14:41.992Z,135
2022-08-07T06:15:51.156Z,135
2022-08-07T06:16:59.362Z,140
2022-08-07T06:18:08.543Z,140
2022-08-07T06:19:17.693Z,140
2022-08-07T06:20:26.882Z,140
2022-08-07T06:21:36.038Z,140
2022-08-07T06:22:45.196Z,140
2022-08-07T06:23:54.376Z,140
2022-08-07T06:25:03.548Z,140
2022-08-07T06:26:12.719Z,146
2022-08-07T06:27:21.897Z,146
2022-08-07T06:28:31.065Z,146
2022-08-07T06:29:40.266Z,146
2022-08-07T06:30:49.410Z,146
2022-08-07T06:31:57.612Z,146
2022-08-07T06:33:06.760Z,146
2022-08-07T06:34:15.940Z,146
2022-08-07T06:35:25.110Z,146
2022-08-07T06:36:34.289Z,146
2022-08-07T06:37:43.457Z,151
2022-08-07T06:38:52.646Z,151
2022-08-07T06:40:01.812Z,151
2022-08-07T06:41:10.997Z,151
2022-08-07T06:42:20.144Z,151
2022-08-07T06:43:29.311Z,151
2022-08-07T06:44:38.500Z,151
2022-08-07T06:45:47.678Z,151
2022-08-07T06:46:55.848Z,151
2022-08-07T06:48:05.042Z,157
2022-08-07T06:49:14.227Z,157
2022-08-07T06:50:23.405Z,157
2022-08-07T06:51:32.546Z,157
2022-08-07T06:52:41.712Z,157
2022-08-07T06:53:50.898Z,157
2022-08-07T06:55:00.082Z,157
2022-08-07T06:56:09.252Z,157
2022-08-07T06:57:18.413Z,157
2022-08-07T06:58:27.593Z,157
2022-08-07T06:59:36.753Z,157
2022-08-07T07:00:45.950Z,157
2022-08-07T07:01:54.129Z,157
2022-08-07T07:03:03.284Z,157
2022-08-07T07:04:12.461Z,157
2022-08-07T07:05:21.634Z,157
2022-08-07T07:06:30.824Z,157
2022-08-07T07:07:39.979Z,157
2022-08-07T07:08:49.156Z,157
2022-08-07T07:09:58.320Z,157
2022-08-07T07:11:07.498Z,157
2022-08-07T07:12:16.672Z,157
2022-08-07T07:13:25.850Z,157
2022-08-07T07:14:35.033Z,157
2022-08-07T07:15:44.192Z,163
2022-08-07T07:16:52.386Z,163
2022-08-07T07:18:01.560Z,163
2022-08-07T07:19:10.716Z,163
2022-08-07T07:20:19.895Z,163
2022-08-07T07:21:29.083Z,163
2022-08-07T07:22:38.250Z,163
2022-08-07T07:23:47.410Z,163
2022-08-07T07:24:56.593Z,163
2022-08-07T07:26:05.766Z,163
2022-08-07T07:27:14.923Z,163
2022-08-07T07:28:24.124Z,163
2022-08-07T07:29:33.277Z,163
2022-08-07T07:30:42.437Z,163
2022-08-07T07:31:50.639Z,168
2022-08-07T07:32:59.808Z,168
2022-08-07T07:34:08.967Z,168
2022-08-07T07:35:18.155Z,168
2022-08-07T07:36:27.328Z,168
2022-08-07T07:37:36.488Z,168
2022-08-07T07:38:45.673Z,168
2022-08-07T07:39:54.834Z,168
2022-08-07T07:41:04.007Z,168
2022-08-07T07:42:13.190Z,168
2022-08-07T07:43:22.363Z,174
2022-08-07T07:44:31.527Z,174
2022-08-07T07:45:40.698Z,168
2022-08-07T07:46:48.907Z,174
2022-08-07T07:47:58.070Z,180
2022-08-07T07:49:07.240Z,174
2022-08-07T07:50:16.412Z,180
2022-08-07T07:51:25.596Z,174
2022-08-07T07:52:34.789Z,180
2022-08-07T07:53:43.929Z,174
2022-08-07T07:54:53.088Z,174
2022-08-07T07:56:02.265Z,174
2022-08-07T07:57:11.443Z,174
2022-08-07T07:58:20.601Z,174
2022-08-07T07:59:29.775Z,174
2022-08-07T08:00:38.964Z,174
2022-08-07T08:01:47.143Z,174
2022-08-07T08:02:56.320Z,174
2022-08-07T08:04:05.544Z,174
2022-08-07T08:05:14.663Z,174
2022-08-07T08:06:23.861Z,174
2022-08-07T08:07:33.015Z,180
2022-08-07T08:08:42.169Z,180
2022-08-07T08:09:51.349Z,180
2022-08-07T08:11:00.551Z,180
2022-08-07T08:12:09.703Z,180
2022-08-07T08:13:18.867Z,180
2022-08-07T08:14:28.045Z,180
2022-08-07T08:15:37.230Z,180
2022-08-07T08:16:45.424Z,180
2022-08-07T08:17:54.588Z,180
2022-08-07T08:19:03.749Z,180
2022-08-07T08:20:12.915Z,180
2022-08-07T08:21:22.091Z,180
2022-08-07T08:22:31.262Z,180
2022-08-07T08:23:40.446Z,180
2022-08-07T08:24:49.614Z,180
2022-08-07T08:25:58.798Z,180
2022-08-07T08:27:07.954Z,180
2022-08-07T08:28:17.145Z,180
2022-08-07T08:29:26.312Z,180
2022-08-07T08:30:35.471Z,180
2022-08-07T08:31:43.676Z,180
2022-08-07T08:32:52.836Z,180
2022-08-07T08:34:02.024Z,185
2022-08-07T08:35:11.186Z,185
2022-08-07T08:36:20.354Z,180
2022-08-07T08:37:29.537Z,185
2022-08-07T08:38:38.718Z,185
2022-08-07T08:39:47.869Z,185
2022-08-07T08:40:57.078Z,185
2022-08-07T08:42:06.221Z,185
2022-08-07T08:43:15.388Z,185
2022-08-07T08:44:24.564Z,185
2022-08-07T08:45:33.735Z,185
2022-08-07T08:46:41.940Z,185
2022-08-07T08:47:51.101Z,185
2022-08-07T08:49:00.286Z,185
2022-08-07T08:50:09.462Z,185
2022-08-07T08:51:18.616Z,185
2022-08-07T08:52:27.790Z,185
2022-08-07T08:53:36.957Z,185
2022-08-07T08:54:46.171Z,185
2022-08-07T08:55:55.303Z,185
2022-08-07T08:57:04.497Z,191
2022-08-07T08:58:13.659Z,191
2022-08-07T08:59:22.832Z,191
2022-08-07T09:00:31.989Z,191
2022-08-07T09:01:41.164Z,191
2022-08-07T09:02:49.369Z,191
2022-08-07T09:03:58.549Z,191
2022-08-07T09:05:07.703Z,191
2022-08-07T09:06:16.895Z,191
2022-08-07T09:07:26.071Z,191
2022-08-07T09:08:35.215Z,191
2022-08-07T09:09:44.399Z,191
2022-08-07T09:10:53.592Z,191
2022-08-07T09:12:02.740Z,191
2022-08-07T09:13:11.938Z,196
2022-08-07T09:14:21.094Z,196
2022-08-07T09:15:30.258Z,196
2022-08-07T09:16:39.432Z,196
2022-08-07T09:17:47.613Z,196
2022-08-07T09:18:56.788Z,196
2022-08-07T09:20:05.964Z,196
2022-08-07T09:21:15.138Z,196
2022-08-07T09:22:24.302Z,196
2022-08-07T09:23:33.485Z,196
2022-08-07T09:24:42.688Z,196
2022-08-07T09:27:00.998Z,202
2022-08-07T09:28:10.182Z,202
2022-08-07T09:29:19.338Z,202
2022-08-07T09:30:28.515Z,202
2022-08-07T09:31:37.689Z,202
2022-08-07T09:32:45.889Z,202
2022-08-07T09:33:55.059Z,208
2022-08-07T09:35:04.222Z,208
2022-08-07T09:36:13.410Z,208
2022-08-07T09:37:22.582Z,208
2022-08-07T09:38:31.742Z,208
2022-08-07T09:39:40.906Z,213
2022-08-07T09:40:50.079Z,213
2022-08-07T09:41:59.267Z,213
2022-08-07T09:43:08.449Z,219
2022-08-07T09:44:17.613Z,219
2022-08-07T09:45:26.772Z,219
2022-08-07T09:46:35.944Z,219
2022-08-07T09:47:44.143Z,219
2022-08-07T09:48:53.315Z,219
2022-08-07T09:50:02.490Z,219
2022-08-07T09:51:11.662Z,219
2022-08-07T09:53:29.994Z,219
2022-08-07T09:54:39.164Z,219
2022-08-07T09:55:48.362Z,225
2022-08-07T09:56:57.518Z,225
2022-08-07T09:58:06.697Z,225
2022-08-07T09:59:15.853Z,225
2022-08-07T10:00:25.022Z,236
2022-08-07T10:01:34.201Z,236
2022-08-07T10:02:42.378Z,247
2022-08-07T10:03:51.561Z,253
2022-08-07T10:05:00.723Z,264
2022-08-07T10:06:09.933Z,281
2022-08-07T10:07:19.085Z,281
2022-08-07T10:08:28.258Z,275
2022-08-07T10:09:37.418Z,270
2022-08-07T10:10:46.600Z,264
2022-08-07T10:11:55.773Z,270
2022-08-07T10:13:04.940Z,281
2022-08-07T10:14:14.104Z,270
2022-08-07T10:15:23.280Z,275
2022-08-07T10:16:32.441Z,270
2022-08-07T10:17:40.653Z,270
2022-08-07T10:18:49.825Z,275
2022-08-07T10:19:58.984Z,281
2022-08-07T10:21:08.177Z,275
2022-08-07T10:22:17.335Z,281
2022-08-07T10:23:26.507Z,275
2022-08-07T10:24:35.677Z,275
2022-08-07T10:25:44.845Z,281
2022-08-07T10:26:54.048Z,286
2022-08-07T10:28:03.204Z,286
2022-08-07T10:29:12.362Z,264
2022-08-07T10:30:21.544Z,270
2022-08-07T10:31:30.734Z,281
2022-08-07T10:32:38.904Z,286
2022-08-07T10:33:48.070Z,286
2022-08-07T10:34:57.247Z,275
2022-08-07T10:36:06.413Z,275
2022-08-07T10:37:15.614Z,275
2022-08-07T10:38:24.759Z,270
2022-08-07T10:39:33.941Z,270
2022-08-07T10:40:43.120Z,270
2022-08-07T10:41:52.308Z,270
2022-08-07T10:43:01.491Z,270
2022-08-07T10:44:10.638Z,281
2022-08-07T10:45:19.819Z,292
2022-08-07T10:46:28.980Z,281
2022-08-07T10:47:37.176Z,281
2022-08-07T10:48:46.333Z,286
2022-08-07T10:49:55.534Z,281
2022-08-07T10:51:04.709Z,270
2022-08-07T10:52:13.879Z,264
2022-08-07T10:53:23.027Z,270
2022-08-07T10:54:32.192Z,275
2022-08-07T10:55:41.396Z,275
2022-08-07T10:56:50.545Z,270
2022-08-07T10:57:59.721Z,264
2022-08-07T10:59:08.935Z,270
2022-08-07T11:00:18.064Z,275
2022-08-07T11:01:27.234Z,270
2022-08-07T11:02:35.441Z,275
2022-08-07T11:03:44.611Z,275
2022-08-07T11:04:53.774Z,264
2022-08-07T11:06:02.943Z,264
2022-08-07T11:07:12.124Z,270
2022-08-07T11:08:21.295Z,270
2022-08-07T11:09:30.467Z,275
2022-08-07T11:11:48.809Z,275
2022-08-07T11:12:57.982Z,275
2022-08-07T11:14:07.151Z,275
2022-08-07T11:15:16.317Z,275
2022-08-07T11:16:25.507Z,275
2022-08-07T11:17:33.685Z,275
2022-08-07T11:18:42.849Z,281
2022-08-07T11:21:01.197Z,292
2022-08-07T11:22:10.400Z,292
2022-08-07T11:23:19.554Z,286
2022-08-07T11:24:28.727Z,281
2022-08-07T11:25:37.908Z,281
2022-08-07T11:26:47.084Z,281
2022-08-07T11:27:56.244Z,286
2022-08-07T11:29:05.412Z,286
2022-08-07T11:30:14.587Z,292
2022-08-07T11:31:23.760Z,258
2022-08-07T11:32:31.951Z,225
2022-08-07T11:33:41.130Z,191
2022-08-07T11:34:50.309Z,191
2022-08-07T11:35:59.461Z,185
2022-08-07T11:37:08.641Z,180
2022-08-07T11:38:17.835Z,180
2022-08-07T11:39:26.970Z,180
2022-08-07T11:40:36.148Z,174
2022-08-07T11:41:45.329Z,168
2022-08-07T11:42:54.512Z,174
2022-08-07T11:44:03.664Z,191
2022-08-07T11:45:12.864Z,286
2022-08-07T11:46:22.019Z,286
2022-08-07T11:47:30.220Z,281
2022-08-07T11:48:39.400Z,286
2022-08-07T11:49:48.539Z,286
2022-08-07T11:50:57.741Z,281
2022-08-07T11:52:06.907Z,281
2022-08-07T11:53:16.095Z,286
2022-08-07T11:54:25.242Z,286
2022-08-07T11:55:34.420Z,292
2022-08-07T11:56:43.601Z,303
2022-08-07T11:57:52.789Z,309
2022-08-07T11:59:01.948Z,320
2022-08-07T12:00:11.097Z,331
2022-08-07T12:01:20.294Z,337
2022-08-07T12:02:28.468Z,343
2022-08-07T12:03:37.628Z,348
2022-08-07T12:04:46.831Z,354
2022-08-07T12:05:55.993Z,360
2022-08-07T12:07:05.155Z,376
2022-08-07T12:08:14.325Z,388
2022-08-07T12:09:23.493Z,399
2022-08-07T12:10:32.672Z,393
2022-08-07T12:11:41.846Z,388
2022-08-07T12:12:51.051Z,382
2022-08-07T12:14:00.201Z,388
2022-08-07T12:15:09.378Z,410
2022-08-07T12:16:18.537Z,416
2022-08-07T12:17:26.730Z,427
2022-08-07T12:18:35.908Z,478
2022-08-07T12:19:45.096Z,466
2022-08-07T12:20:54.227Z,444
2022-08-07T12:22:03.420Z,421
2022-08-07T12:23:11.600Z,506
2022-08-07T12:24:20.766Z,652
2022-08-07T12:25:29.959Z,686
2022-08-07T12:26:39.115Z,759
2022-08-07T12:27:48.288Z,1102
2022-08-07T12:28:57.472Z,1496
2022-08-07T12:30:06.637Z,1243
2022-08-07T12:31:15.802Z,995
2022-08-07T12:32:24.981Z,826
2022-08-07T12:33:34.163Z,675
2022-08-07T12:34:43.352Z,675
2022-08-07T12:35:52.494Z,675
2022-08-07T12:37:01.673Z,444
2022-08-07T12:38:09.867Z,618
2022-08-07T12:39:19.028Z,686
2022-08-07T12:40:28.214Z,720
2022-08-07T12:41:37.386Z,753
2022-08-07T12:42:46.569Z,663
2022-08-07T12:43:55.738Z,618
2022-08-07T12:45:04.908Z,680
2022-08-07T12:46:14.077Z,658
2022-08-07T12:47:23.260Z,551
2022-08-07T12:48:32.426Z,551
2022-08-07T12:49:41.591Z,748
2022-08-07T12:50:50.773Z,781
2022-08-07T12:51:59.940Z,708
2022-08-07T12:53:08.146Z,736
2022-08-07T12:54:17.286Z,669
2022-08-07T12:55:26.459Z,804
2022-08-07T12:56:35.648Z,973
2022-08-07T12:57:44.823Z,945
2022-08-07T12:58:54.004Z,720
2022-08-07T13:00:03.149Z,686
2022-08-07T13:01:12.322Z,675
2022-08-07T13:03:30.677Z,798
2022-08-07T13:04:39.851Z,1479
2022-08-07T13:05:49.015Z,2047
2022-08-07T13:06:58.181Z,1946
2022-08-07T13:09:15.552Z,1462
2022-08-07T13:10:24.722Z,1704
2022-08-07T13:11:33.903Z,1563
2022-08-07T13:12:43.066Z,1518
2022-08-07T13:13:52.266Z,1783
2022-08-07T13:15:01.425Z,1507
2022-08-07T13:16:10.581Z,1119
2022-08-07T13:17:19.770Z,1018
2022-08-07T13:18:28.936Z,933
2022-08-07T13:19:38.106Z,922
2022-08-07T13:20:47.306Z,765
2022-08-07T13:21:56.451Z,720
2022-08-07T13:23:04.639Z,663
2022-08-07T13:24:13.832Z,579
2022-08-07T13:25:22.983Z,528
2022-08-07T13:26:32.160Z,517
2022-08-07T13:27:41.335Z,517
2022-08-07T13:28:50.516Z,528
2022-08-07T13:29:59.704Z,916
2022-08-07T13:31:08.844Z,1479
2022-08-07T13:32:18.024Z,1569
2022-08-07T13:33:27.196Z,1670
2022-08-07T13:34:36.367Z,1631
2022-08-07T13:35:45.541Z,1676
2022-08-07T13:36:54.725Z,1462
2022-08-07T13:38:02.922Z,1636
2022-08-07T13:39:12.078Z,1828
2022-08-07T13:40:21.261Z,2058
2022-08-07T13:41:30.429Z,2165
2022-08-07T13:42:39.608Z,2053
2022-08-07T13:43:48.752Z,1861
2022-08-07T13:44:57.944Z,1912
2022-08-07T13:46:07.110Z,1783
2022-08-07T13:47:16.295Z,1873
2022-08-07T13:48:25.450Z,1856
2022-08-07T13:49:34.625Z,2115
2022-08-07T13:50:43.816Z,2221
2022-08-07T13:51:52.971Z,1929
2022-08-07T13:53:01.183Z,1890
2022-08-07T13:54:10.327Z,2115
2022-08-07T13:55:19.527Z,1923
2022-08-07T13:56:28.681Z,2193
2022-08-07T13:57:37.859Z,1890
2022-08-07T13:58:47.019Z,2002
2022-08-07T13:59:56.194Z,2013
2022-08-07T14:01:05.369Z,2041
2022-08-07T14:02:14.559Z,2115
2022-08-07T14:03:23.710Z,1968
2022-08-07T14:04:32.894Z,1923
2022-08-07T14:05:42.062Z,1890
2022-08-07T14:06:51.234Z,2182
2022-08-07T14:07:59.412Z,2075
2022-08-07T14:09:08.615Z,1901
2022-08-07T14:10:17.764Z,1828
2022-08-07T14:11:26.950Z,1996
2022-08-07T14:12:36.128Z,2165
2022-08-07T14:13:45.297Z,2176
2022-08-07T14:14:54.449Z,1974
2022-08-07T14:16:03.651Z,2008
2022-08-07T14:17:12.812Z,2216
2022-08-07T14:18:21.977Z,2081
2022-08-07T14:19:31.143Z,2109
2022-08-07T14:20:40.326Z,2188
2022-08-07T14:21:49.498Z,2396
2022-08-07T14:22:57.714Z,2351
2022-08-07T14:24:06.860Z,2491
2022-08-07T14:25:16.048Z,2075
2022-08-07T14:26:25.203Z,2103
2022-08-07T14:27:34.374Z,2525
2022-08-07T14:28:43.552Z,2452
2022-08-07T14:29:52.730Z,2210
2022-08-07T14:31:01.931Z,2340
2022-08-07T14:32:10.087Z,2559
2022-08-07T14:33:18.284Z,2300
2022-08-07T14:34:27.448Z,2390
2022-08-07T14:35:36.629Z,2469
2022-08-07T14:36:45.791Z,2497
2022-08-07T14:37:54.967Z,2250
2022-08-07T14:39:04.159Z,2103
2022-08-07T14:40:13.309Z,2340
2022-08-07T14:41:22.486Z,2362
2022-08-07T14:42:31.662Z,2486
2022-08-07T14:43:39.874Z,2334
2022-08-07T14:44:48.059Z,2739
2022-08-07T14:45:57.229Z,2300
2022-08-07T14:47:06.397Z,2548
2022-08-07T14:48:15.563Z,2733
2022-08-07T14:49:24.730Z,2317
2022-08-07T14:50:33.938Z,2250
2022-08-07T14:51:43.086Z,2086
2022-08-07T14:52:52.270Z,2385
2022-08-07T14:54:01.427Z,2452
2022-08-07T14:55:10.597Z,2745
2022-08-07T14:56:19.766Z,2317
2022-08-07T14:57:28.939Z,2182
2022-08-07T14:58:38.121Z,2289
2022-08-07T14:59:46.302Z,2570
2022-08-07T15:00:55.489Z,2553
2022-08-07T15:02:04.666Z,2418
2022-08-07T15:03:13.825Z,2446
2022-08-07T15:04:22.998Z,2171
2022-08-07T15:05:32.182Z,2233
2022-08-07T15:06:41.372Z,2317
2022-08-07T15:07:50.530Z,2986
2022-08-07T15:08:59.701Z,2295
2022-08-07T15:10:08.872Z,2435
2022-08-07T15:11:18.054Z,2396
2022-08-07T15:12:27.221Z,2525
2022-08-07T15:13:36.394Z,2761
2022-08-07T15:14:44.574Z,2761
2022-08-07T15:15:53.763Z,2475
2022-08-07T15:17:02.920Z,2486
2022-08-07T15:18:12.096Z,2171
2022-08-07T15:19:21.283Z,2289
2022-08-07T15:20:30.439Z,2503
2022-08-07T15:21:39.631Z,2413
2022-08-07T15:22:48.780Z,2238
2022-08-07T15:23:57.951Z,2176
2022-08-07T15:25:07.132Z,2345
2022-08-07T15:26:16.299Z,2711
2022-08-07T15:28:34.649Z,2306
2022-08-07T15:29:42.841Z,2604
2022-08-07T15:30:52.043Z,2413
2022-08-07T15:32:01.181Z,2385
2022-08-07T15:33:10.355Z,2643
2022-08-07T15:34:19.548Z,2896
2022-08-07T15:35:28.704Z,2941
2022-08-07T15:36:37.875Z,2615
2022-08-07T15:37:47.058Z,2531
2022-08-07T15:40:05.387Z,2649
2022-08-07T15:41:14.554Z,2278
2022-08-07T15:42:23.726Z,2542
2022-08-07T15:43:32.927Z,2655
2022-08-07T15:44:41.089Z,2621
2022-08-07T15:45:50.263Z,2610
2022-08-07T15:46:59.467Z,2829
2022-08-07T15:48:08.606Z,2610
2022-08-07T15:49:17.789Z,2334
2022-08-07T15:50:26.960Z,1980
2022-08-07T15:51:36.154Z,1884
2022-08-07T15:52:45.347Z,2092
2022-08-07T15:53:54.521Z,2255
2022-08-07T15:55:03.670Z,2475
2022-08-07T15:56:12.851Z,2306
2022-08-07T15:57:22.003Z,2486
2022-08-07T15:58:31.173Z,2390
2022-08-07T15:59:39.365Z,2688
2022-08-07T16:00:48.569Z,2829
2022-08-07T16:01:57.702Z,2728
2022-08-07T16:03:06.873Z,2486
2022-08-07T16:04:16.045Z,2103
2022-08-07T16:05:25.239Z,2311
2022-08-07T16:06:34.391Z,2210
2022-08-07T16:07:43.587Z,2165
2022-08-07T16:08:52.773Z,2396
2022-08-07T16:10:01.980Z,2250
2022-08-07T16:11:11.099Z,1980
2022-08-07T16:12:20.262Z,1411
2022-08-07T16:13:29.425Z,720
2022-08-07T16:14:37.660Z,669